Aviation Digital Data Service (ADDS)

Output produced by METARs form (0747 UTC 18 February 2019)
found at http://www.aviationweather.gov/metar/data/
 
Forecast for: WBKK (KOTA KINABALU IN, MY)
Text: TAF WBKK 180500Z 1806/1906 33008KT 9999 FEW014
Forecast period: 0600 UTC 18 February 2019 to 0600 UTC 19 February 2019
Forecast type: FROM: standard forecast or significant change
Winds: from the NNW (330 degrees) at 9 MPH (8 knots; 4.1 m/s)
Visibility: 6 or more miles 10+ km)
Ceiling: at least 12,000 feet AGL
Clouds: few clouds at 1400 feet AGL
Weather: no significant weather forecast for this period
Text: TEMPO 1807/1810 5000 RA FEW012 SCT040
Forecast period: 0700 to 1000 UTC 18 February 2019
Forecast type: TEMPORARY: The following changes expected for less than half the time period
Visibility: 3 miles (5 km)
Ceiling: at least 12,000 feet AGL
Clouds: few clouds at 1200 feet AGL
scattered clouds at 4000 feet AGL
Weather: RA  (moderate rain)